sensor_id;sensor_type;location;lat;lon;timestamp;temperature;humidity
42085;DHT22;27746;52.228;20.890;2022-11-14T07:34:29;8.60;99.90
42085;DHT22;27746;52.228;20.890;2022-11-14T07:51:39;8.00;99.90
42085;DHT22;27746;52.228;20.890;2022-11-14T07:54:08;8.00;99.90
42085;DHT22;27746;52.228;20.890;2022-11-14T17:39:28;8.10;99.90
42085;DHT22;27746;52.228;20.890;2022-11-14T17:41:55;6.90;99.90
42085;DHT22;27746;52.228;20.890;2022-11-14T17:44:21;6.90;99.90
42085;DHT22;27746;52.228;20.890;2022-11-14T17:46:52;6.80;99.90
42085;DHT22;27746;52.228;20.890;2022-11-14T17:49:19;6.80;99.90
42085;DHT22;27746;52.228;20.890;2022-11-14T17:51:46;6.80;99.90
42085;DHT22;27746;52.228;20.890;2022-11-14T17:54:14;6.80;99.90
42085;DHT22;27746;52.228;20.890;2022-11-14T17:56:41;7.80;99.90
42085;DHT22;27746;52.228;20.890;2022-11-14T17:59:07;6.80;99.90
42085;DHT22;27746;52.228;20.890;2022-11-14T18:01:34;6.80;99.90
42085;DHT22;27746;52.228;20.890;2022-11-14T18:04:01;6.80;99.90
42085;DHT22;27746;52.228;20.890;2022-11-14T18:06:27;6.80;99.90
42085;DHT22;27746;52.228;20.890;2022-11-14T18:08:54;6.80;99.90
42085;DHT22;27746;52.228;20.890;2022-11-14T18:11:22;6.90;99.90
42085;DHT22;27746;52.228;20.890;2022-11-14T18:13:52;6.80;99.90
42085;DHT22;27746;52.228;20.890;2022-11-14T18:16:19;6.80;99.90
42085;DHT22;27746;52.228;20.890;2022-11-14T18:18:49;6.80;99.90
42085;DHT22;27746;52.228;20.890;2022-11-14T18:36:10;6.80;99.90
42085;DHT22;27746;52.228;20.890;2022-11-14T18:41:07;6.60;99.90
42085;DHT22;27746;52.228;20.890;2022-11-14T18:43:35;6.60;99.90
42085;DHT22;27746;52.228;20.890;2022-11-14T18:46:08;6.60;99.90
42085;DHT22;27746;52.228;20.890;2022-11-14T18:48:35;6.60;99.90
42085;DHT22;27746;52.228;20.890;2022-11-14T18:51:04;6.60;99.90
42085;DHT22;27746;52.228;20.890;2022-11-14T18:53:31;6.60;99.90
42085;DHT22;27746;52.228;20.890;2022-11-14T18:56:02;6.50;99.90
42085;DHT22;27746;52.228;20.890;2022-11-14T18:58:29;6.60;99.90
42085;DHT22;27746;52.228;20.890;2022-11-14T19:00:55;6.60;99.90
42085;DHT22;27746;52.228;20.890;2022-11-14T19:03:24;6.60;99.90
42085;DHT22;27746;52.228;20.890;2022-11-14T19:05:50;6.60;99.90
42085;DHT22;27746;52.228;20.890;2022-11-14T19:13:11;6.50;99.90
42085;DHT22;27746;52.228;20.890;2022-11-14T19:15:38;6.60;99.90
42085;DHT22;27746;52.228;20.890;2022-11-14T19:18:07;6.60;99.90
42085;DHT22;27746;52.228;20.890;2022-11-14T19:20:36;6.60;99.90
42085;DHT22;27746;52.228;20.890;2022-11-14T19:23:02;6.60;99.90
42085;DHT22;27746;52.228;20.890;2022-11-14T19:25:29;6.60;99.90
42085;DHT22;27746;52.228;20.890;2022-11-14T19:27:56;6.60;99.90
42085;DHT22;27746;52.228;20.890;2022-11-14T19:30:25;6.50;99.90
42085;DHT22;27746;52.228;20.890;2022-11-14T19:32:52;6.60;99.90
42085;DHT22;27746;52.228;20.890;2022-11-14T19:35:18;6.50;99.90
42085;DHT22;27746;52.228;20.890;2022-11-14T19:37:46;6.60;99.90
42085;DHT22;27746;52.228;20.890;2022-11-14T19:40:14;6.50;99.90
42085;DHT22;27746;52.228;20.890;2022-11-14T19:42:40;6.50;99.90
42085;DHT22;27746;52.228;20.890;2022-11-14T19:45:08;6.60;99.90
42085;DHT22;27746;52.228;20.890;2022-11-14T19:47:35;6.60;99.90
42085;DHT22;27746;52.228;20.890;2022-11-14T19:50:02;6.50;99.90
42085;DHT22;27746;52.228;20.890;2022-11-14T19:52:28;6.50;99.90
42085;DHT22;27746;52.228;20.890;2022-11-14T19:54:57;6.50;99.90
42085;DHT22;27746;52.228;20.890;2022-11-14T19:57:23;6.50;99.90
42085;DHT22;27746;52.228;20.890;2022-11-14T19:59:50;6.50;99.90
42085;DHT22;27746;52.228;20.890;2022-11-14T20:02:17;6.50;99.90
42085;DHT22;27746;52.228;20.890;2022-11-14T20:04:44;6.50;99.90
42085;DHT22;27746;52.228;20.890;2022-11-14T20:07:12;6.50;99.90
42085;DHT22;27746;52.228;20.890;2022-11-14T20:09:39;6.40;99.90
42085;DHT22;27746;52.228;20.890;2022-11-14T20:12:07;6.50;99.90
42085;DHT22;27746;52.228;20.890;2022-11-14T20:14:34;6.40;99.90
42085;DHT22;27746;52.228;20.890;2022-11-14T20:17:00;6.40;99.90
42085;DHT22;27746;52.228;20.890;2022-11-14T20:19:27;6.40;99.90
42085;DHT22;27746;52.228;20.890;2022-11-14T20:21:54;6.40;99.90
42085;DHT22;27746;52.228;20.890;2022-11-14T20:24:20;6.40;99.90
42085;DHT22;27746;52.228;20.890;2022-11-14T20:26:49;6.40;99.90
42085;DHT22;27746;52.228;20.890;2022-11-14T20:29:19;6.30;99.90
